createdAt,value
2022-11-14T00:02:28.470Z,14.38
2022-11-14T00:05:14.218Z,13.82
2022-11-14T00:07:59.756Z,17.65
2022-11-14T00:10:50.231Z,17.60
2022-11-14T00:13:36.088Z,17.42
2022-11-14T00:16:21.718Z,19.00
2022-11-14T00:19:07.450Z,17.63
2022-11-14T00:21:53.609Z,17.90
2022-11-14T00:24:39.003Z,19.15
2022-11-14T00:27:24.500Z,18.83
2022-11-14T00:30:10.279Z,18.85
2022-11-14T00:32:56.049Z,20.63
2022-11-14T00:35:41.671Z,19.83
2022-11-14T00:38:27.826Z,20.10
2022-11-14T00:41:13.585Z,22.30
2022-11-14T00:43:59.236Z,20.58
2022-11-14T00:46:44.736Z,22.40
2022-11-14T00:49:30.112Z,23.15
2022-11-14T00:52:15.790Z,23.13
2022-11-14T00:55:01.232Z,22.65
2022-11-14T00:57:47.028Z,23.88
2022-11-14T01:00:32.852Z,24.55
2022-11-14T01:03:18.498Z,23.35
2022-11-14T01:06:07.262Z,23.80
2022-11-14T01:08:52.629Z,22.27
2022-11-14T01:12:46.008Z,23.05
2022-11-14T01:15:31.290Z,23.83
2022-11-14T01:18:19.981Z,25.60
2022-11-14T01:21:07.980Z,24.77
2022-11-14T01:23:53.611Z,25.05
2022-11-14T01:26:39.044Z,24.40
2022-11-14T01:29:24.538Z,26.30
2022-11-14T01:32:10.017Z,24.92
2022-11-14T01:34:55.594Z,23.65
2022-11-14T01:37:40.962Z,24.88
2022-11-14T01:40:26.621Z,26.45
2022-11-14T01:43:11.964Z,25.85
2022-11-14T01:45:59.155Z,25.60
2022-11-14T01:49:17.320Z,25.05
2022-11-14T01:52:06.949Z,24.25
2022-11-14T01:54:55.951Z,25.20
2022-11-14T01:57:46.169Z,24.75
2022-11-14T02:00:31.416Z,23.77
2022-11-14T02:03:18.759Z,25.35
2022-11-14T02:06:06.535Z,24.15
2022-11-14T02:08:53.696Z,25.23
2022-11-14T02:11:43.383Z,24.50
2022-11-14T02:17:32.175Z,23.55
2022-11-14T02:20:28.792Z,22.75
2022-11-14T02:23:15.050Z,22.67
2022-11-14T02:27:10.578Z,22.38
2022-11-14T02:30:04.645Z,22.45
2022-11-14T02:33:10.077Z,24.55
2022-11-14T02:35:56.081Z,24.65
2022-11-14T02:38:41.915Z,23.27
2022-11-14T02:41:27.966Z,24.65
2022-11-14T02:44:13.803Z,22.73
2022-11-14T02:46:59.091Z,20.73
2022-11-14T02:49:44.462Z,22.20
2022-11-14T02:52:29.874Z,21.05
2022-11-14T02:55:15.554Z,20.80
2022-11-14T02:58:01.027Z,19.50
2022-11-14T03:01:13.675Z,19.92
2022-11-14T03:03:52.411Z,20.60
2022-11-14T03:06:38.018Z,18.52
2022-11-14T03:09:23.447Z,17.67
2022-11-14T03:12:09.336Z,18.65
2022-11-14T03:14:54.928Z,17.35
2022-11-14T03:17:40.254Z,16.17
2022-11-14T03:20:25.921Z,16.98
2022-11-14T03:23:11.458Z,16.73
2022-11-14T03:26:01.911Z,16.30
2022-11-14T03:28:47.287Z,17.42
2022-11-14T03:31:33.142Z,15.48
2022-11-14T03:34:18.525Z,17.20
2022-11-14T03:37:03.995Z,15.48
2022-11-14T03:39:49.283Z,16.08
2022-11-14T03:42:35.791Z,17.67
2022-11-14T03:45:21.474Z,16.92
2022-11-14T03:48:07.440Z,17.95
2022-11-14T03:50:52.806Z,17.38
2022-11-14T03:53:38.171Z,17.35
2022-11-14T03:56:23.654Z,17.10
2022-11-14T04:03:34.907Z,16.23
2022-11-14T04:06:20.332Z,16.88
2022-11-14T04:09:06.561Z,16.67
2022-11-14T04:11:51.655Z,17.67
2022-11-14T04:14:37.100Z,17.05
2022-11-14T04:17:22.662Z,18.55
2022-11-14T04:20:08.874Z,19.00
2022-11-14T04:22:54.503Z,17.65
2022-11-14T04:25:40.046Z,17.80
2022-11-14T04:28:25.733Z,17.30
2022-11-14T04:31:11.204Z,17.80
2022-11-14T04:33:56.808Z,17.75
2022-11-14T04:36:42.477Z,16.60
2022-11-14T04:39:28.064Z,16.55
2022-11-14T04:42:13.881Z,16.98
2022-11-14T04:44:59.430Z,17.58
2022-11-14T04:47:45.118Z,17.90
2022-11-14T04:50:30.854Z,18.48
2022-11-14T04:53:16.178Z,18.42
2022-11-14T04:56:01.715Z,18.35
2022-11-14T04:58:47.210Z,19.33
2022-11-14T05:01:33.122Z,17.92
2022-11-14T05:04:18.765Z,18.35
2022-11-14T05:07:04.478Z,18.98
2022-11-14T05:09:49.780Z,18.73
2022-11-14T05:12:35.578Z,19.58
2022-11-14T05:15:21.353Z,20.33
2022-11-14T05:18:07.236Z,19.95
2022-11-14T05:20:52.773Z,18.70
2022-11-14T05:23:38.247Z,20.30
2022-11-14T05:26:24.070Z,20.45
2022-11-14T05:29:09.535Z,20.13
2022-11-14T05:31:54.913Z,20.65
2022-11-14T05:34:40.387Z,20.33
2022-11-14T05:37:25.816Z,21.80
2022-11-14T05:40:11.952Z,21.90
2022-11-14T05:42:57.768Z,21.45
2022-11-14T05:45:43.437Z,22.30
2022-11-14T05:48:29.714Z,21.80
2022-11-14T05:51:16.611Z,21.98
2022-11-14T05:54:02.071Z,22.33
2022-11-14T05:56:47.374Z,20.85
2022-11-14T05:59:33.176Z,20.27
2022-11-14T06:02:18.814Z,20.40
2022-11-14T06:05:04.787Z,18.75
2022-11-14T06:07:56.409Z,18.73
2022-11-14T06:10:41.974Z,18.40
2022-11-14T06:13:27.645Z,19.98
2022-11-14T06:16:16.164Z,18.92
2022-11-14T06:19:01.924Z,19.70
2022-11-14T06:21:47.380Z,19.92
2022-11-14T06:24:32.654Z,18.02
2022-11-14T06:27:18.351Z,17.42
2022-11-14T06:30:04.321Z,17.10
2022-11-14T06:32:50.127Z,17.77
2022-11-14T06:35:37.208Z,15.95
2022-11-14T06:38:23.014Z,16.48
2022-11-14T06:41:20.084Z,17.50
2022-11-14T06:44:08.860Z,16.70
2022-11-14T06:46:54.410Z,18.47
2022-11-14T06:49:40.861Z,16.38
2022-11-14T06:52:27.342Z,16.85
2022-11-14T06:55:13.092Z,16.00
2022-11-14T06:57:58.542Z,14.82
2022-11-14T07:00:43.868Z,15.60
2022-11-14T07:03:29.506Z,15.20
2022-11-14T07:06:28.827Z,14.40
2022-11-14T07:09:14.431Z,16.92
2022-11-14T07:11:59.742Z,15.57
2022-11-14T07:14:45.407Z,15.85
2022-11-14T07:17:31.626Z,15.10
2022-11-14T07:20:20.915Z,15.88
2022-11-14T07:23:06.781Z,15.07
2022-11-14T07:25:52.335Z,15.55
2022-11-14T07:29:08.146Z,16.35
2022-11-14T07:36:15.323Z,15.32
2022-11-14T07:39:00.909Z,16.00
2022-11-14T07:41:46.754Z,15.63
2022-11-14T07:44:32.295Z,15.52
2022-11-14T07:47:17.937Z,14.68
2022-11-14T07:50:04.272Z,14.73
2022-11-14T07:52:54.960Z,15.93
2022-11-14T07:55:40.346Z,16.15
2022-11-14T07:58:25.713Z,15.65
2022-11-14T08:01:12.961Z,15.85
2022-11-14T08:03:58.336Z,15.75
2022-11-14T08:06:43.893Z,16.20
2022-11-14T08:09:29.479Z,16.48
2022-11-14T08:12:15.105Z,16.73
2022-11-14T08:15:29.701Z,15.68
2022-11-14T08:18:15.184Z,15.32
2022-11-14T08:21:04.515Z,15.02
2022-11-14T08:26:35.760Z,14.63
2022-11-14T08:29:21.354Z,15.70
2022-11-14T08:32:07.027Z,14.25
2022-11-14T08:34:52.497Z,14.02
2022-11-14T08:37:37.852Z,15.65
2022-11-14T08:40:23.626Z,14.70
2022-11-14T08:47:34.827Z,13.98
2022-11-14T08:50:20.577Z,14.25
2022-11-14T08:53:06.238Z,13.93
2022-11-14T08:55:51.914Z,13.10
2022-11-14T08:58:37.512Z,13.07
2022-11-14T09:01:22.670Z,13.43
2022-11-14T09:04:09.215Z,12.73
2022-11-14T09:06:55.117Z,13.40
2022-11-14T09:09:40.511Z,11.73
2022-11-14T09:12:26.157Z,12.43
2022-11-14T09:15:11.915Z,12.60
2022-11-14T09:17:58.220Z,12.55
2022-11-14T09:20:43.515Z,13.25
2022-11-14T09:23:29.734Z,11.88
2022-11-14T09:30:36.961Z,12.57
2022-11-14T09:33:22.146Z,12.93
2022-11-14T09:36:10.954Z,13.60
2022-11-14T09:38:56.166Z,12.80
2022-11-14T09:46:21.928Z,13.57
2022-11-14T09:49:35.424Z,12.77
2022-11-14T09:52:35.626Z,12.38
2022-11-14T09:55:36.454Z,11.10
2022-11-14T09:58:22.324Z,10.85
2022-11-14T10:01:46.306Z,10.75
2022-11-14T10:04:35.308Z,10.38
2022-11-14T10:08:05.918Z,8.55
2022-11-14T10:10:59.377Z,9.70
2022-11-14T10:14:06.010Z,8.48
2022-11-14T10:17:07.854Z,8.93
2022-11-14T10:20:28.673Z,9.13
2022-11-14T10:23:14.088Z,8.35
2022-11-14T10:26:08.617Z,8.68
2022-11-14T10:29:39.020Z,7.78
2022-11-14T10:32:55.019Z,8.25
2022-11-14T10:35:58.053Z,7.30
2022-11-14T10:38:52.678Z,6.38
2022-11-14T10:41:56.785Z,7.05
2022-11-14T10:44:56.251Z,7.03
2022-11-14T10:47:48.677Z,6.07
2022-11-14T10:50:51.499Z,6.25
2022-11-14T10:53:55.486Z,5.53
2022-11-14T10:56:48.396Z,5.35
2022-11-14T10:59:33.714Z,5.32
2022-11-14T11:02:19.351Z,4.60
2022-11-14T11:05:15.536Z,4.50
2022-11-14T11:08:44.878Z,4.63
2022-11-14T11:11:31.091Z,4.65
2022-11-14T11:14:18.615Z,4.28
2022-11-14T11:21:24.005Z,4.57
2022-11-14T11:24:09.790Z,4.90
2022-11-14T11:27:18.698Z,4.35
2022-11-14T11:30:25.685Z,3.90
2022-11-14T11:33:24.269Z,4.15
2022-11-14T11:36:19.556Z,3.97
2022-11-14T11:39:19.686Z,3.60
2022-11-14T11:45:00.944Z,2.95
2022-11-14T11:48:18.905Z,2.67
2022-11-14T11:51:07.266Z,2.25
2022-11-14T11:54:25.027Z,2.15
2022-11-14T11:57:21.479Z,2.00
2022-11-14T12:00:16.255Z,2.13
2022-11-14T12:03:02.185Z,2.65
2022-11-14T12:06:27.622Z,2.45
2022-11-14T12:09:48.819Z,1.90
2022-11-14T12:13:03.643Z,2.13
2022-11-14T12:16:01.523Z,2.20
2022-11-14T12:19:05.589Z,2.55
2022-11-14T12:22:20.439Z,2.53
2022-11-14T12:25:41.283Z,2.25
2022-11-14T12:28:38.682Z,1.17
2022-11-14T12:31:26.985Z,1.30
2022-11-14T12:34:30.313Z,1.13
2022-11-14T12:37:23.787Z,1.17
2022-11-14T12:40:27.484Z,1.10
2022-11-14T12:43:43.165Z,1.23
2022-11-14T12:47:07.376Z,1.13
2022-11-14T12:49:53.113Z,1.83
2022-11-14T12:52:44.681Z,3.95
2022-11-14T12:55:29.976Z,3.83
2022-11-14T12:59:13.257Z,3.55
2022-11-14T13:02:01.620Z,3.60
2022-11-14T13:05:17.038Z,4.85
2022-11-14T13:08:14.813Z,3.97
2022-11-14T13:11:00.286Z,4.25
2022-11-14T13:14:20.787Z,4.45
2022-11-14T13:17:45.404Z,4.00
2022-11-14T13:21:23.681Z,4.25
2022-11-14T13:24:09.534Z,3.38
2022-11-14T13:26:55.889Z,2.70
2022-11-14T13:29:41.140Z,3.30
2022-11-14T13:32:41.858Z,2.60
2022-11-14T13:35:36.589Z,2.40
2022-11-14T13:38:55.689Z,2.47
2022-11-14T13:46:06.946Z,2.15
2022-11-14T13:49:05.487Z,2.00
2022-11-14T13:51:53.613Z,2.38
2022-11-14T13:54:54.500Z,2.05
2022-11-14T13:57:56.181Z,2.17
2022-11-14T14:01:13.082Z,2.33
2022-11-14T14:04:26.339Z,1.80
2022-11-14T14:07:20.841Z,1.80
2022-11-14T14:10:18.431Z,1.58
2022-11-14T14:13:32.033Z,1.75
2022-11-14T14:16:36.492Z,1.75
2022-11-14T14:19:43.857Z,1.83
2022-11-14T14:22:44.300Z,1.88
2022-11-14T14:25:32.910Z,1.55
2022-11-14T14:28:25.466Z,1.73
2022-11-14T14:31:15.734Z,1.67
2022-11-14T14:34:34.436Z,1.42
2022-11-14T14:37:25.186Z,1.45
2022-11-14T14:40:27.255Z,1.60
2022-11-14T14:43:42.499Z,2.25
2022-11-14T14:46:33.512Z,1.77
2022-11-14T14:49:23.030Z,1.90
2022-11-14T14:52:34.625Z,1.33
2022-11-14T14:55:26.129Z,1.83
2022-11-14T14:58:19.678Z,1.58
2022-11-14T15:01:34.319Z,2.08
2022-11-14T15:04:22.272Z,1.75
2022-11-14T15:07:22.437Z,2.00
2022-11-14T15:10:08.642Z,2.05
2022-11-14T15:12:55.143Z,2.38
2022-11-14T15:15:40.806Z,2.63
2022-11-14T15:18:32.843Z,2.33
2022-11-14T15:21:24.493Z,2.15
2022-11-14T15:24:15.412Z,1.85
2022-11-14T15:27:17.261Z,2.15
2022-11-14T15:30:06.138Z,2.03
2022-11-14T15:32:56.367Z,2.22
2022-11-14T15:35:42.074Z,2.35
2022-11-14T15:38:54.147Z,2.10
2022-11-14T15:41:34.246Z,1.88
2022-11-14T15:44:33.976Z,1.90
2022-11-14T15:47:28.636Z,2.05
2022-11-14T15:50:14.238Z,1.85
2022-11-14T15:53:03.967Z,2.08
2022-11-14T15:55:49.601Z,1.85
2022-11-14T15:58:34.804Z,2.20
2022-11-14T16:01:26.154Z,2.25
2022-11-14T16:04:19.973Z,1.90
2022-11-14T16:07:06.186Z,2.03
2022-11-14T16:09:53.730Z,2.72
2022-11-14T16:12:38.963Z,2.03
2022-11-14T16:15:24.848Z,2.22
2022-11-14T16:18:12.292Z,1.85
2022-11-14T16:20:59.513Z,1.90
2022-11-14T16:23:45.120Z,1.73
2022-11-14T16:26:31.420Z,1.65
2022-11-14T16:29:18.640Z,1.83
2022-11-14T16:32:04.155Z,1.77
2022-11-14T16:34:49.529Z,2.25
2022-11-14T16:37:35.271Z,2.70
2022-11-14T16:40:27.946Z,1.92
2022-11-14T16:43:14.958Z,1.85
2022-11-14T16:46:07.584Z,2.10
2022-11-14T16:48:54.316Z,1.88
2022-11-14T16:51:48.577Z,1.70
2022-11-14T16:54:35.064Z,2.45
2022-11-14T16:57:20.623Z,2.17
2022-11-14T17:00:12.494Z,3.35
2022-11-14T17:02:58.186Z,3.13
2022-11-14T17:05:45.407Z,2.20
2022-11-14T17:08:31.091Z,1.95
2022-11-14T17:11:44.710Z,1.83
2022-11-14T17:14:30.572Z,1.90
2022-11-14T17:17:16.144Z,1.90
2022-11-14T17:20:18.576Z,1.70
2022-11-14T17:23:04.413Z,2.45
2022-11-14T17:25:49.614Z,3.17
2022-11-14T17:28:35.818Z,3.17
2022-11-14T17:31:21.703Z,2.60
2022-11-14T17:38:34.911Z,2.13
2022-11-14T17:41:20.622Z,1.90
2022-11-14T17:44:06.270Z,2.58
2022-11-14T17:46:51.533Z,3.30
2022-11-14T17:49:36.966Z,2.10
2022-11-14T17:52:22.437Z,3.00
2022-11-14T17:55:08.190Z,2.50
2022-11-14T17:57:53.572Z,2.40
2022-11-14T18:00:39.054Z,2.60
2022-11-14T18:03:25.333Z,2.90
2022-11-14T18:06:16.806Z,2.80
2022-11-14T18:09:05.160Z,3.13
2022-11-14T18:11:51.004Z,3.03
2022-11-14T18:15:03.398Z,3.15
2022-11-14T18:17:48.957Z,2.78
2022-11-14T18:20:37.639Z,2.58
2022-11-14T18:23:22.944Z,3.28
2022-11-14T18:26:13.496Z,2.20
2022-11-14T18:29:02.455Z,2.50
2022-11-14T18:31:48.877Z,2.60
2022-11-14T18:34:37.015Z,2.50
2022-11-14T18:37:23.270Z,2.42
2022-11-14T18:40:16.114Z,2.90
2022-11-14T18:43:01.861Z,2.50
2022-11-14T18:45:47.224Z,3.13
2022-11-14T18:48:32.996Z,2.78
2022-11-14T18:51:31.065Z,3.25
2022-11-14T18:54:17.757Z,2.65
2022-11-14T18:57:03.530Z,2.30
2022-11-14T18:59:49.124Z,2.80
2022-11-14T19:02:35.067Z,3.13
2022-11-14T19:05:47.590Z,3.13
2022-11-14T19:08:33.196Z,3.10
2022-11-14T19:11:37.918Z,2.97
2022-11-14T19:14:23.707Z,3.08
2022-11-14T19:17:09.230Z,3.33
2022-11-14T19:19:54.839Z,3.47
2022-11-14T19:22:40.519Z,4.07
2022-11-14T19:25:26.044Z,3.47
2022-11-14T19:29:03.985Z,3.03
2022-11-14T19:31:49.477Z,3.15
2022-11-14T19:34:34.861Z,2.90
2022-11-14T19:37:20.327Z,3.00
2022-11-14T19:40:06.671Z,3.15
2022-11-14T19:43:00.356Z,3.40
2022-11-14T19:45:45.916Z,3.10
2022-11-14T19:48:32.383Z,3.08
2022-11-14T19:51:18.558Z,3.58
2022-11-14T19:54:04.377Z,2.97
2022-11-14T19:56:49.780Z,3.33
2022-11-14T19:59:40.691Z,3.13
2022-11-14T20:02:28.643Z,3.10
2022-11-14T20:05:14.408Z,3.35
2022-11-14T20:07:59.848Z,3.05
2022-11-14T20:10:55.624Z,3.20
2022-11-14T20:13:42.506Z,3.28
2022-11-14T20:16:30.641Z,4.82
2022-11-14T20:19:16.272Z,4.70
2022-11-14T20:22:01.830Z,4.28
2022-11-14T20:24:47.208Z,8.07
2022-11-14T20:27:32.509Z,11.23
2022-11-14T20:30:18.396Z,5.20
2022-11-14T20:33:04.029Z,3.70
2022-11-14T20:35:49.779Z,3.60
2022-11-14T20:38:38.945Z,3.70
2022-11-14T20:41:31.592Z,3.13
2022-11-14T20:44:19.001Z,2.97
2022-11-14T20:47:09.728Z,3.25
2022-11-14T20:49:56.593Z,2.70
2022-11-14T20:52:56.459Z,2.78
2022-11-14T20:55:42.764Z,2.80
2022-11-14T20:58:28.695Z,2.63
2022-11-14T21:01:15.920Z,2.90
2022-11-14T21:04:01.824Z,2.75
2022-11-14T21:06:47.228Z,2.67
2022-11-14T21:09:32.663Z,2.42
2022-11-14T21:12:18.218Z,2.30
2022-11-14T21:15:35.475Z,2.53
2022-11-14T21:18:20.855Z,2.28
2022-11-14T21:21:19.271Z,2.35
2022-11-14T21:24:05.585Z,2.10
2022-11-14T21:26:51.095Z,3.25
2022-11-14T21:29:37.059Z,2.63
2022-11-14T21:32:23.027Z,2.35
2022-11-14T21:35:10.088Z,2.28
2022-11-14T21:37:55.736Z,2.38
2022-11-14T21:40:41.231Z,1.95
2022-11-14T21:43:26.582Z,2.20
2022-11-14T21:46:17.904Z,2.30
2022-11-14T21:49:03.537Z,2.38
2022-11-14T21:51:48.931Z,2.30
2022-11-14T21:54:34.578Z,2.28
2022-11-14T21:57:19.909Z,2.78
2022-11-14T22:00:06.301Z,1.92
2022-11-14T22:03:10.843Z,2.30
2022-11-14T22:05:57.666Z,2.30
2022-11-14T22:08:45.831Z,2.60
2022-11-14T22:11:31.435Z,2.10
2022-11-14T22:14:17.124Z,2.95
2022-11-14T22:17:02.470Z,2.13
2022-11-14T22:19:48.024Z,2.00
2022-11-14T22:22:33.598Z,2.65
2022-11-14T22:25:18.992Z,2.50
2022-11-14T22:28:04.921Z,1.90
2022-11-14T22:31:05.750Z,2.05
2022-11-14T22:33:53.413Z,2.05
2022-11-14T22:36:39.147Z,1.40
2022-11-14T22:39:24.494Z,1.77
2022-11-14T22:42:10.865Z,1.75
2022-11-14T22:44:56.552Z,1.80
2022-11-14T22:47:41.867Z,1.73
2022-11-14T22:50:27.547Z,1.80
2022-11-14T22:53:13.195Z,2.00
2022-11-14T22:55:59.185Z,1.80
2022-11-14T22:58:45.882Z,2.00
2022-11-14T23:01:33.087Z,1.70
2022-11-14T23:04:18.836Z,1.60
2022-11-14T23:07:04.345Z,1.95
2022-11-14T23:09:50.177Z,1.50
2022-11-14T23:12:35.738Z,1.48
2022-11-14T23:15:21.654Z,2.10
2022-11-14T23:18:07.231Z,1.65
2022-11-14T23:20:52.608Z,1.70
2022-11-14T23:23:38.288Z,1.88
2022-11-14T23:26:24.396Z,2.00
2022-11-14T23:29:14.425Z,1.42
2022-11-14T23:31:59.988Z,1.80
2022-11-14T23:34:45.482Z,1.33
2022-11-14T23:37:30.926Z,2.33
2022-11-14T23:40:16.530Z,1.70
2022-11-14T23:43:02.092Z,1.40
2022-11-14T23:45:48.456Z,1.60
2022-11-14T23:48:33.960Z,1.55
2022-11-14T23:51:19.480Z,1.60
2022-11-14T23:54:05.209Z,1.42
2022-11-14T23:56:50.611Z,1.60
2022-11-14T23:59:36.090Z,1.63
